createdAt,value
2019-03-28T00:01:05.421Z,93.23
2019-03-28T00:03:38.355Z,95.93
2019-03-28T00:06:11.449Z,101.37
2019-03-28T00:08:44.197Z,83.27
2019-03-28T00:11:16.987Z,80.87
2019-03-28T00:13:49.856Z,85.80
2019-03-28T00:16:23.208Z,89.27
2019-03-28T00:18:57.503Z,87.27
2019-03-28T00:21:30.460Z,82.97
2019-03-28T00:24:11.370Z,76.10
2019-03-28T00:26:44.403Z,81.37
2019-03-28T00:29:17.142Z,71.97
2019-03-28T00:31:50.026Z,76.83
2019-03-28T00:34:22.889Z,75.17
2019-03-28T00:36:55.628Z,73.83
2019-03-28T00:39:28.425Z,73.37
2019-03-28T00:42:01.559Z,70.70
2019-03-28T00:44:34.345Z,66.93
2019-03-28T00:47:07.127Z,73.80
2019-03-28T00:49:39.929Z,69.70
2019-03-28T00:52:12.674Z,67.70
2019-03-28T00:54:46.165Z,61.13
2019-03-28T00:57:19.247Z,67.80
2019-03-28T00:59:52.616Z,70.40
2019-03-28T01:02:25.520Z,64.97
2019-03-28T01:04:58.347Z,65.10
2019-03-28T01:07:31.127Z,67.60
2019-03-28T01:10:03.881Z,62.80
2019-03-28T01:12:37.118Z,58.27
2019-03-28T01:15:10.441Z,67.97
2019-03-28T01:17:43.431Z,54.37
2019-03-28T01:20:16.590Z,61.27
2019-03-28T01:22:49.457Z,57.97
2019-03-28T01:25:22.215Z,61.40
2019-03-28T01:27:55.029Z,65.40
2019-03-28T01:30:27.853Z,70.73
2019-03-28T01:33:00.619Z,70.73
2019-03-28T01:35:33.602Z,68.97
2019-03-28T01:38:06.800Z,75.60
2019-03-28T01:40:39.765Z,72.00
2019-03-28T01:43:12.533Z,64.90
2019-03-28T01:45:45.323Z,69.77
2019-03-28T01:48:18.333Z,74.13
2019-03-28T01:50:51.202Z,79.93
2019-03-28T01:53:24.118Z,64.17
2019-03-28T01:55:56.952Z,64.70
2019-03-28T01:58:30.247Z,60.50
2019-03-28T02:01:03.265Z,70.77
2019-03-28T02:03:36.282Z,73.63
2019-03-28T02:06:09.629Z,67.03
2019-03-28T02:08:42.467Z,74.37
2019-03-28T02:11:15.279Z,72.17
2019-03-28T02:13:48.193Z,68.90
2019-03-28T02:16:21.488Z,76.37
2019-03-28T02:18:54.429Z,78.30
2019-03-28T02:21:27.922Z,68.93
2019-03-28T02:24:01.324Z,67.10
2019-03-28T02:26:34.442Z,75.40
2019-03-28T02:29:07.468Z,78.40
2019-03-28T02:31:40.269Z,69.03
2019-03-28T02:34:13.184Z,62.47
2019-03-28T02:36:46.000Z,81.53
2019-03-28T02:39:18.776Z,75.87
2019-03-28T02:41:52.111Z,68.13
2019-03-28T02:44:24.961Z,94.50
2019-03-28T02:46:57.813Z,85.30
2019-03-28T02:49:31.131Z,65.17
2019-03-28T02:52:03.920Z,84.37
2019-03-28T02:54:36.934Z,114.30
2019-03-28T02:57:09.748Z,79.20
2019-03-28T02:59:42.545Z,78.17
2019-03-28T03:02:15.421Z,71.97
2019-03-28T03:04:48.204Z,75.33
2019-03-28T03:07:21.026Z,72.10
2019-03-28T03:09:53.763Z,76.27
2019-03-28T03:12:27.745Z,84.93
2019-03-28T03:15:00.882Z,66.13
2019-03-28T03:17:33.705Z,77.43
2019-03-28T03:20:06.940Z,76.47
2019-03-28T03:22:39.761Z,77.83
2019-03-28T03:25:13.227Z,70.93
2019-03-28T03:27:57.669Z,80.60
2019-03-28T03:30:20.701Z,75.30
2019-03-28T03:32:53.602Z,105.93
2019-03-28T03:35:26.402Z,142.67
2019-03-28T03:37:59.281Z,105.30
2019-03-28T03:40:32.129Z,117.73
2019-03-28T03:43:05.086Z,103.53
2019-03-28T03:45:37.999Z,104.50
2019-03-28T03:48:11.985Z,132.07
2019-03-28T03:50:44.944Z,93.63
2019-03-28T03:53:17.748Z,84.80
2019-03-28T03:55:51.057Z,83.90
2019-03-28T03:58:23.868Z,88.47
2019-03-28T04:00:58.008Z,85.77
2019-03-28T04:03:31.135Z,78.70
2019-03-28T04:06:03.976Z,80.50
2019-03-28T04:08:37.035Z,89.90
2019-03-28T04:11:09.998Z,91.13
2019-03-28T04:13:42.809Z,85.17
2019-03-28T04:16:15.662Z,80.63
2019-03-28T04:18:48.549Z,95.33
2019-03-28T04:21:21.666Z,95.47
2019-03-28T04:23:55.707Z,88.40
2019-03-28T04:26:28.715Z,85.10
2019-03-28T04:29:01.631Z,80.50
2019-03-28T04:31:34.609Z,85.80
2019-03-28T04:34:08.819Z,83.03
2019-03-28T04:36:42.082Z,78.37
2019-03-28T04:39:15.002Z,82.47
2019-03-28T04:41:47.890Z,91.43
2019-03-28T04:44:21.645Z,94.70
2019-03-28T04:46:54.624Z,98.33
2019-03-28T04:49:27.876Z,85.40
2019-03-28T04:52:01.478Z,82.70
2019-03-28T04:54:34.290Z,82.77
2019-03-28T04:57:07.367Z,79.90
2019-03-28T04:59:40.417Z,89.33
2019-03-28T05:02:14.350Z,75.63
2019-03-28T05:04:47.264Z,89.90
2019-03-28T05:07:20.188Z,90.57
2019-03-28T05:09:53.096Z,97.10
2019-03-28T05:12:25.986Z,89.10
2019-03-28T05:14:58.797Z,90.00
2019-03-28T05:17:32.030Z,84.23
2019-03-28T05:20:05.229Z,87.63
2019-03-28T05:22:38.208Z,97.10
2019-03-28T05:25:11.678Z,93.37
2019-03-28T05:27:44.635Z,88.97
2019-03-28T05:30:17.836Z,94.47
2019-03-28T05:32:51.407Z,85.03
2019-03-28T05:35:24.356Z,81.43
2019-03-28T05:37:57.188Z,70.80
2019-03-28T05:40:30.077Z,65.80
2019-03-28T05:43:02.996Z,72.40
2019-03-28T05:45:35.842Z,66.90
2019-03-28T05:48:08.734Z,76.87
2019-03-28T05:50:41.775Z,66.90
2019-03-28T05:53:14.554Z,64.10
2019-03-28T05:55:47.358Z,83.93
2019-03-28T05:58:20.232Z,68.43
2019-03-28T06:00:53.047Z,66.87
2019-03-28T06:03:26.392Z,69.47
2019-03-28T06:05:59.231Z,67.00
2019-03-28T06:08:32.007Z,73.77
2019-03-28T06:11:06.348Z,60.93
2019-03-28T06:13:39.136Z,64.07
2019-03-28T06:16:11.994Z,62.40
2019-03-28T06:18:46.422Z,53.97
2019-03-28T06:21:19.433Z,77.07
2019-03-28T06:23:52.295Z,76.57
2019-03-28T06:26:25.124Z,75.27
2019-03-28T06:28:57.913Z,73.80
2019-03-28T06:31:31.196Z,69.77
2019-03-28T06:34:04.159Z,73.40
2019-03-28T06:36:36.998Z,71.37
2019-03-28T06:39:11.706Z,72.77
2019-03-28T06:41:44.556Z,69.93
2019-03-28T06:44:17.454Z,73.17
2019-03-28T06:46:50.285Z,72.83
2019-03-28T06:49:23.096Z,100.17
2019-03-28T06:51:55.945Z,81.23
2019-03-28T06:54:28.795Z,100.50
2019-03-28T06:57:02.053Z,68.47
2019-03-28T06:59:37.557Z,84.33
2019-03-28T07:02:09.615Z,76.97
2019-03-28T07:04:42.417Z,71.90
2019-03-28T07:07:18.341Z,75.80
2019-03-28T07:09:49.761Z,78.90
2019-03-28T07:12:22.739Z,70.57
2019-03-28T07:14:55.517Z,64.07
2019-03-28T07:17:28.592Z,70.17
2019-03-28T07:20:01.399Z,56.13
2019-03-28T07:22:34.357Z,73.63
2019-03-28T07:25:08.127Z,65.40
2019-03-28T07:27:41.321Z,65.93
2019-03-28T07:30:15.695Z,71.67
2019-03-28T07:32:48.641Z,65.70
2019-03-28T07:35:22.039Z,80.10
2019-03-28T07:37:54.931Z,67.67
2019-03-28T07:40:27.791Z,82.97
2019-03-28T07:43:00.785Z,95.60
2019-03-28T07:45:34.571Z,75.70
2019-03-28T07:48:07.557Z,87.43
2019-03-28T07:50:42.565Z,91.13
2019-03-28T07:53:19.843Z,85.63
2019-03-28T07:55:52.775Z,78.57
2019-03-28T07:58:25.769Z,80.70
2019-03-28T08:00:58.724Z,86.27
2019-03-28T08:03:31.820Z,100.80
2019-03-28T08:06:04.895Z,88.50
2019-03-28T08:08:38.903Z,110.10
2019-03-28T08:11:12.523Z,121.37
2019-03-28T08:13:45.571Z,109.87
2019-03-28T08:16:18.442Z,95.43
2019-03-28T08:18:51.649Z,99.00
2019-03-28T08:21:24.656Z,112.13
2019-03-28T08:23:57.592Z,73.87
2019-03-28T08:26:30.554Z,72.37
2019-03-28T08:29:03.581Z,85.63
2019-03-28T08:31:40.753Z,75.30
2019-03-28T08:34:13.102Z,69.13
2019-03-28T08:36:46.549Z,75.30
2019-03-28T08:39:19.801Z,55.90
2019-03-28T08:41:52.805Z,76.10
2019-03-28T08:44:25.693Z,59.80
2019-03-28T08:46:59.177Z,51.33
2019-03-28T08:49:32.294Z,48.23
2019-03-28T08:52:05.160Z,65.00
2019-03-28T08:54:38.053Z,66.10
2019-03-28T08:57:10.987Z,56.07
2019-03-28T08:59:43.922Z,62.67
2019-03-28T09:02:17.728Z,60.07
2019-03-28T09:04:50.640Z,45.77
2019-03-28T09:07:23.445Z,47.10
2019-03-28T09:09:56.399Z,40.67
2019-03-28T09:12:29.272Z,32.53
2019-03-28T09:15:02.142Z,54.73
2019-03-28T09:17:35.043Z,40.73
2019-03-28T09:20:06.964Z,32.63
2019-03-28T09:22:39.709Z,41.80
2019-03-28T09:25:12.716Z,42.73
2019-03-28T09:27:45.576Z,37.60
2019-03-28T09:30:47.308Z,34.30
2019-03-28T09:33:09.394Z,31.40
2019-03-28T09:35:42.203Z,27.77
2019-03-28T09:38:15.173Z,31.67
2019-03-28T09:40:47.976Z,33.03
2019-03-28T09:43:21.904Z,45.63
2019-03-28T09:45:54.944Z,33.30
2019-03-28T09:48:27.727Z,35.40
2019-03-28T09:51:00.845Z,50.00
2019-03-28T09:53:33.598Z,35.50
2019-03-28T09:56:06.753Z,41.00
2019-03-28T09:58:39.591Z,43.60
2019-03-28T10:01:12.422Z,40.23
2019-03-28T10:03:45.241Z,32.97
2019-03-28T10:06:18.683Z,30.43
2019-03-28T10:08:51.805Z,30.17
2019-03-28T10:11:24.593Z,29.17
2019-03-28T10:13:57.383Z,33.23
2019-03-28T10:16:30.279Z,35.27
2019-03-28T10:19:03.149Z,46.87
2019-03-28T10:21:37.444Z,38.50
2019-03-28T10:24:11.566Z,33.93
2019-03-28T10:26:44.764Z,24.23
2019-03-28T10:29:17.599Z,31.13
2019-03-28T10:31:51.451Z,18.77
2019-03-28T10:34:24.245Z,22.03
2019-03-28T10:36:57.128Z,18.23
2019-03-28T10:39:29.889Z,23.13
2019-03-28T10:42:03.186Z,25.43
2019-03-28T10:44:36.451Z,30.50
2019-03-28T10:47:09.354Z,29.77
2019-03-28T10:49:42.143Z,18.10
2019-03-28T10:52:14.926Z,35.73
2019-03-28T10:54:47.803Z,26.40
2019-03-28T10:57:29.818Z,31.77
2019-03-28T10:59:55.672Z,26.47
2019-03-28T11:02:29.091Z,18.50
2019-03-28T11:05:02.128Z,16.63
2019-03-28T11:07:34.939Z,34.53
2019-03-28T11:10:08.309Z,27.97
2019-03-28T11:12:41.827Z,35.97
2019-03-28T11:15:14.959Z,25.60
2019-03-28T11:17:47.975Z,29.17
2019-03-28T11:20:22.727Z,28.27
2019-03-28T11:22:55.504Z,28.30
2019-03-28T11:25:28.377Z,29.87
2019-03-28T11:28:01.219Z,26.00
2019-03-28T11:30:35.197Z,21.37
2019-03-28T11:33:08.050Z,18.37
2019-03-28T11:35:40.828Z,16.53
2019-03-28T11:38:13.655Z,28.83
2019-03-28T11:40:47.597Z,27.90
2019-03-28T11:43:21.254Z,22.80
2019-03-28T11:45:54.222Z,18.33
2019-03-28T11:48:27.038Z,29.57
2019-03-28T11:50:59.913Z,37.63
2019-03-28T11:53:32.709Z,41.13
2019-03-28T11:56:05.513Z,76.23
2019-03-28T11:58:38.786Z,51.33
2019-03-28T12:01:11.793Z,54.80
2019-03-28T12:03:44.569Z,52.47
2019-03-28T12:06:17.394Z,35.60
2019-03-28T12:08:50.193Z,37.90
2019-03-28T12:11:22.986Z,30.70
2019-03-28T12:13:55.774Z,100.63
2019-03-28T12:16:28.575Z,84.30
2019-03-28T12:19:01.743Z,26.00
2019-03-28T12:21:34.513Z,23.33
2019-03-28T12:24:07.325Z,14.43
2019-03-28T12:26:40.115Z,19.87
2019-03-28T12:29:13.334Z,13.17
2019-03-28T12:31:46.095Z,14.03
2019-03-28T12:34:18.890Z,18.27
2019-03-28T12:36:51.672Z,15.90
2019-03-28T12:39:24.482Z,13.93
2019-03-28T12:41:57.239Z,13.53
2019-03-28T12:44:30.040Z,10.50
2019-03-28T12:47:02.875Z,15.37
2019-03-28T12:49:35.799Z,13.43
2019-03-28T12:52:09.872Z,13.73
2019-03-28T12:54:44.198Z,14.43
2019-03-28T12:57:17.238Z,13.97
2019-03-28T12:59:53.335Z,15.17
2019-03-28T13:02:31.493Z,17.07
2019-03-28T13:04:59.209Z,20.17
2019-03-28T13:07:32.049Z,18.13
2019-03-28T13:10:05.472Z,17.57
2019-03-28T13:12:38.253Z,14.73
2019-03-28T13:15:11.880Z,15.03
2019-03-28T13:17:44.693Z,22.07
2019-03-28T13:20:17.610Z,22.27
2019-03-28T13:22:52.094Z,18.00
2019-03-28T13:25:25.061Z,14.17
2019-03-28T13:27:57.915Z,12.73
2019-03-28T13:30:30.677Z,13.03
2019-03-28T13:33:03.443Z,15.10
2019-03-28T13:35:36.458Z,17.80
2019-03-28T13:38:09.317Z,13.07
2019-03-28T13:40:42.151Z,28.10
2019-03-28T13:43:16.049Z,22.90
2019-03-28T13:45:48.887Z,25.17
2019-03-28T13:48:22.040Z,19.80
2019-03-28T13:50:55.111Z,11.57
2019-03-28T13:53:38.641Z,11.83
2019-03-28T13:56:02.525Z,21.13
2019-03-28T13:58:35.362Z,45.57
2019-03-28T14:01:08.139Z,27.40
2019-03-28T14:03:41.284Z,23.17
2019-03-28T14:06:14.240Z,22.47
2019-03-28T14:08:47.199Z,16.43
2019-03-28T14:11:20.076Z,17.23
2019-03-28T14:13:52.889Z,15.57
2019-03-28T14:16:27.133Z,15.87
2019-03-28T14:18:59.891Z,16.73
2019-03-28T14:21:32.680Z,14.77
2019-03-28T14:24:05.655Z,12.40
2019-03-28T14:26:39.550Z,10.33
2019-03-28T14:29:12.339Z,10.63
2019-03-28T14:31:45.229Z,10.83
2019-03-28T14:34:18.126Z,20.80
2019-03-28T14:36:51.203Z,49.10
2019-03-28T14:39:24.011Z,18.53
2019-03-28T14:41:56.790Z,15.17
2019-03-28T14:44:29.755Z,21.13
2019-03-28T14:47:02.587Z,16.23
2019-03-28T14:49:35.358Z,23.03
2019-03-28T14:52:08.527Z,18.93
2019-03-28T14:54:41.323Z,19.67
2019-03-28T14:57:16.107Z,11.03
2019-03-28T14:59:51.337Z,14.13
2019-03-28T15:02:24.317Z,28.07
2019-03-28T15:04:57.210Z,23.40
2019-03-28T15:07:31.128Z,27.13
2019-03-28T15:10:04.022Z,25.93
2019-03-28T15:12:36.834Z,36.67
2019-03-28T15:15:09.813Z,37.77
2019-03-28T15:17:44.970Z,38.17
2019-03-28T15:20:17.283Z,62.03
2019-03-28T15:22:50.111Z,43.33
2019-03-28T15:25:22.873Z,33.07
2019-03-28T15:27:55.702Z,31.03
2019-03-28T15:30:28.497Z,22.57
2019-03-28T15:33:01.611Z,24.83
2019-03-28T15:35:34.400Z,21.43
2019-03-28T15:38:07.287Z,18.80
2019-03-28T15:40:40.085Z,21.00
2019-03-28T15:43:12.951Z,22.80
2019-03-28T15:45:45.757Z,24.23
2019-03-28T15:48:18.677Z,18.80
2019-03-28T15:50:51.473Z,20.73
2019-03-28T15:53:24.320Z,19.10
2019-03-28T15:55:57.204Z,23.60
2019-03-28T15:58:30.188Z,30.63
2019-03-28T16:01:03.041Z,28.70
2019-03-28T16:03:35.855Z,26.93
2019-03-28T16:06:08.615Z,28.23
2019-03-28T16:08:41.819Z,43.03
2019-03-28T16:11:14.698Z,36.70
2019-03-28T16:13:47.537Z,44.90
2019-03-28T16:16:20.392Z,32.07
2019-03-28T16:18:53.236Z,38.17
2019-03-28T16:21:26.851Z,39.77
2019-03-28T16:24:00.105Z,33.67
2019-03-28T16:26:32.897Z,41.03
2019-03-28T16:29:05.735Z,32.43
2019-03-28T16:31:38.601Z,30.33
2019-03-28T16:34:11.846Z,32.90
2019-03-28T16:36:44.703Z,25.20
2019-03-28T16:39:17.497Z,26.57
2019-03-28T16:41:50.331Z,29.13
2019-03-28T16:44:23.191Z,30.23
2019-03-28T16:46:56.065Z,25.53
2019-03-28T16:49:28.876Z,29.60
2019-03-28T16:52:01.795Z,29.50
2019-03-28T16:54:34.625Z,31.43
2019-03-28T16:57:07.450Z,46.97
2019-03-28T16:59:40.757Z,56.50
2019-03-28T17:02:13.848Z,50.43
2019-03-28T17:04:46.631Z,53.20
2019-03-28T17:07:20.231Z,38.00
2019-03-28T17:09:53.312Z,37.93
2019-03-28T17:12:26.154Z,32.43
2019-03-28T17:14:58.919Z,41.93
2019-03-28T17:17:31.733Z,37.90
2019-03-28T17:20:04.591Z,45.40
2019-03-28T17:22:37.370Z,64.17
2019-03-28T17:25:10.196Z,56.80
2019-03-28T17:27:42.985Z,71.20
2019-03-28T17:30:15.767Z,84.23
2019-03-28T17:32:48.604Z,72.93
2019-03-28T17:35:21.647Z,75.53
2019-03-28T17:37:54.395Z,68.30
2019-03-28T17:40:27.256Z,81.77
2019-03-28T17:43:00.050Z,77.20
2019-03-28T17:45:32.883Z,81.70
2019-03-28T17:48:05.897Z,82.10
2019-03-28T17:50:38.687Z,76.17
2019-03-28T17:53:11.639Z,95.33
2019-03-28T17:55:44.605Z,100.30
2019-03-28T17:58:17.456Z,107.20
2019-03-28T18:00:50.245Z,92.47
2019-03-28T18:03:31.019Z,119.13
2019-03-28T18:05:58.706Z,92.33
2019-03-28T18:08:31.943Z,102.37
2019-03-28T18:11:05.051Z,115.33
2019-03-28T18:13:37.854Z,128.83
2019-03-28T18:16:10.657Z,107.83
2019-03-28T18:18:43.620Z,121.47
2019-03-28T18:21:16.428Z,105.83
2019-03-28T18:23:49.779Z,97.07
2019-03-28T18:26:22.854Z,91.30
2019-03-28T18:28:55.655Z,82.10
2019-03-28T18:31:28.747Z,91.93
2019-03-28T18:34:02.678Z,121.03
2019-03-28T18:36:35.682Z,101.17
2019-03-28T18:39:09.747Z,94.00
2019-03-28T18:41:42.507Z,87.13
2019-03-28T18:44:15.749Z,91.87
2019-03-28T18:46:48.593Z,112.33
2019-03-28T18:49:21.380Z,99.77
2019-03-28T18:51:54.255Z,109.87
2019-03-28T18:54:27.186Z,100.57
2019-03-28T18:57:03.100Z,90.13
2019-03-28T18:59:34.394Z,95.67
2019-03-28T19:02:07.206Z,109.57
2019-03-28T19:04:39.993Z,113.47
2019-03-28T19:07:12.787Z,96.47
2019-03-28T19:09:45.924Z,98.10
2019-03-28T19:12:19.034Z,106.33
2019-03-28T19:14:51.911Z,78.83
2019-03-28T19:17:24.785Z,113.40
2019-03-28T19:19:59.517Z,93.43
2019-03-28T19:22:32.134Z,72.07
2019-03-28T19:25:05.216Z,116.30
2019-03-28T19:27:38.021Z,122.47
2019-03-28T19:30:12.899Z,131.97
2019-03-28T19:32:45.669Z,108.03
2019-03-28T19:35:18.574Z,91.43
2019-03-28T19:37:53.226Z,111.00
2019-03-28T19:40:26.218Z,125.57
2019-03-28T19:42:58.996Z,177.70
2019-03-28T19:45:39.446Z,160.87
2019-03-28T19:48:12.230Z,159.33
2019-03-28T19:50:44.995Z,160.17
2019-03-28T19:53:18.178Z,148.00
2019-03-28T19:55:51.308Z,167.93
2019-03-28T19:58:24.131Z,137.90
2019-03-28T20:00:57.019Z,148.63
2019-03-28T20:03:29.847Z,155.50
2019-03-28T20:06:02.628Z,153.67
2019-03-28T20:08:35.432Z,101.47
2019-03-28T20:11:08.307Z,74.70
2019-03-28T20:13:41.557Z,83.53
2019-03-28T20:16:14.441Z,77.93
2019-03-28T20:18:47.260Z,69.87
2019-03-28T20:21:20.053Z,60.27
2019-03-28T20:23:52.806Z,55.90
2019-03-28T20:26:25.597Z,71.30
2019-03-28T20:28:58.387Z,124.23
2019-03-28T20:31:31.590Z,136.23
2019-03-28T20:34:04.437Z,125.10
2019-03-28T20:36:40.720Z,95.50
2019-03-28T20:39:12.344Z,106.83
2019-03-28T20:41:45.245Z,124.47
2019-03-28T20:44:18.835Z,109.60
2019-03-28T20:46:52.066Z,68.00
2019-03-28T20:49:24.829Z,63.00
2019-03-28T20:51:57.673Z,61.53
2019-03-28T20:54:30.999Z,79.63
2019-03-28T20:57:03.803Z,65.00
2019-03-28T20:59:36.641Z,58.80
2019-03-28T21:02:09.414Z,51.33
2019-03-28T21:04:42.738Z,53.20
2019-03-28T21:07:17.507Z,48.73
2019-03-28T21:09:51.046Z,56.53
2019-03-28T21:12:23.824Z,55.30
2019-03-28T21:14:56.654Z,46.40
2019-03-28T21:17:32.012Z,62.80
2019-03-28T21:20:03.956Z,71.93
2019-03-28T21:22:36.736Z,81.60
2019-03-28T21:25:09.936Z,69.60
2019-03-28T21:27:42.827Z,76.50
2019-03-28T21:30:18.501Z,71.50
2019-03-28T21:32:55.671Z,70.00
2019-03-28T21:35:26.411Z,91.57
2019-03-28T21:37:59.201Z,79.30
2019-03-28T21:40:31.952Z,66.37
2019-03-28T21:43:04.884Z,60.57
2019-03-28T21:45:37.908Z,61.10
2019-03-28T21:48:11.061Z,54.53
2019-03-28T21:50:43.849Z,79.73
2019-03-28T21:53:19.720Z,79.97
2019-03-28T21:55:55.273Z,69.97
2019-03-28T21:58:25.786Z,69.23
2019-03-28T22:00:58.551Z,60.93
2019-03-28T22:03:32.002Z,77.70
2019-03-28T22:06:04.774Z,57.10
2019-03-28T22:08:37.531Z,71.37
2019-03-28T22:11:10.295Z,78.13
2019-03-28T22:13:43.077Z,81.70
2019-03-28T22:16:15.876Z,74.53
2019-03-28T22:18:48.722Z,70.20
2019-03-28T22:21:21.528Z,105.10
2019-03-28T22:23:54.321Z,111.63
2019-03-28T22:26:27.169Z,130.73
2019-03-28T22:29:00.038Z,120.47
2019-03-28T22:31:32.886Z,121.80
2019-03-28T22:34:05.684Z,119.30
2019-03-28T22:36:38.472Z,106.07
2019-03-28T22:39:12.165Z,116.50
2019-03-28T22:41:45.645Z,98.63
2019-03-28T22:44:18.441Z,103.47
2019-03-28T22:46:51.243Z,84.17
2019-03-28T22:49:24.028Z,74.80
2019-03-28T22:51:56.802Z,89.90
2019-03-28T22:54:29.604Z,75.20
2019-03-28T22:57:02.498Z,89.70
2019-03-28T22:59:35.428Z,84.83
2019-03-28T23:02:08.517Z,108.27
2019-03-28T23:04:41.580Z,136.50
2019-03-28T23:07:14.583Z,157.67
2019-03-28T23:09:47.676Z,138.63
2019-03-28T23:12:21.028Z,155.63
2019-03-28T23:14:53.850Z,117.20
2019-03-28T23:17:26.683Z,157.20
2019-03-28T23:19:59.513Z,146.40
2019-03-28T23:22:32.309Z,161.07
2019-03-28T23:25:05.216Z,161.90
2019-03-28T23:27:37.992Z,163.30
2019-03-28T23:30:11.889Z,199.70
2019-03-28T23:32:44.650Z,162.07
2019-03-28T23:35:17.479Z,167.50
2019-03-28T23:37:50.225Z,171.40
2019-03-28T23:40:26.162Z,178.50
2019-03-28T23:42:57.675Z,171.43
2019-03-28T23:45:31.129Z,165.20
2019-03-28T23:48:03.941Z,154.20
2019-03-28T23:50:36.807Z,152.07
2019-03-28T23:53:09.779Z,154.93
2019-03-28T23:55:42.540Z,140.27
2019-03-28T23:58:15.338Z,112.63
